sensor_id;sensor_type;location;lat;lon;timestamp;pressure;altitude;pressure_sealevel;temperature;humidity
53874;BME280;62246;50.938;4.058;2022-08-04T00:00:12;101293.72;;;21.30;76.80
53874;BME280;62246;50.938;4.058;2022-08-04T00:05:39;101292.78;;;21.54;76.02
53874;BME280;62246;50.938;4.058;2022-08-04T00:10:48;101284.28;;;21.26;77.07
53874;BME280;62246;50.938;4.058;2022-08-04T00:13:16;101285.00;;;21.20;77.74
53874;BME280;62246;50.938;4.058;2022-08-04T00:15:50;101291.56;;;21.17;77.59
53874;BME280;62246;50.938;4.058;2022-08-04T00:18:18;101283.94;;;21.29;76.59
53874;BME280;62246;50.938;4.058;2022-08-04T00:20:47;101286.22;;;21.40;76.54
53874;BME280;62246;50.938;4.058;2022-08-04T00:23:15;101287.75;;;21.43;76.01
53874;BME280;62246;50.938;4.058;2022-08-04T00:25:41;101291.31;;;21.35;76.56
53874;BME280;62246;50.938;4.058;2022-08-04T00:28:08;101284.63;;;21.23;76.79
53874;BME280;62246;50.938;4.058;2022-08-04T00:30:34;101285.50;;;21.15;77.00
53874;BME280;62246;50.938;4.058;2022-08-04T00:33:01;101284.31;;;21.18;76.88
53874;BME280;62246;50.938;4.058;2022-08-04T00:35:27;101282.03;;;21.06;77.66
53874;BME280;62246;50.938;4.058;2022-08-04T00:37:53;101284.72;;;20.98;77.98
53874;BME280;62246;50.938;4.058;2022-08-04T00:40:30;101283.56;;;20.92;78.33
53874;BME280;62246;50.938;4.058;2022-08-04T00:43:18;101279.66;;;21.03;78.14
53874;BME280;62246;50.938;4.058;2022-08-04T00:48:36;101283.56;;;20.92;78.57
53874;BME280;62246;50.938;4.058;2022-08-04T00:54:24;101288.59;;;20.95;78.35
53874;BME280;62246;50.938;4.058;2022-08-04T00:59:41;101285.69;;;21.13;77.07
53874;BME280;62246;50.938;4.058;2022-08-04T01:05:14;101283.66;;;21.16;76.73
53874;BME280;62246;50.938;4.058;2022-08-04T01:08:05;101293.13;;;21.03;77.81
53874;BME280;62246;50.938;4.058;2022-08-04T01:11:03;101279.94;;;21.17;76.23
53874;BME280;62246;50.938;4.058;2022-08-04T01:13:55;101271.19;;;21.23;76.02
53874;BME280;62246;50.938;4.058;2022-08-04T01:16:25;101269.84;;;21.19;76.17
53874;BME280;62246;50.938;4.058;2022-08-04T01:18:58;101275.59;;;21.16;76.80
53874;BME280;62246;50.938;4.058;2022-08-04T01:29:12;101274.91;;;21.13;75.84
53874;BME280;62246;50.938;4.058;2022-08-04T01:34:29;101275.13;;;20.95;76.78
53874;BME280;62246;50.938;4.058;2022-08-04T01:37:04;101281.75;;;20.76;77.58
53874;BME280;62246;50.938;4.058;2022-08-04T01:39:35;101279.56;;;20.80;75.92
53874;BME280;62246;50.938;4.058;2022-08-04T01:42:06;101268.09;;;20.86;76.07
53874;BME280;62246;50.938;4.058;2022-08-04T01:44:34;101275.81;;;20.97;75.75
53874;BME280;62246;50.938;4.058;2022-08-04T01:47:01;101272.13;;;20.99;75.11
53874;BME280;62246;50.938;4.058;2022-08-04T01:49:30;101269.59;;;20.97;75.37
53874;BME280;62246;50.938;4.058;2022-08-04T01:51:56;101261.81;;;21.10;74.78
53874;BME280;62246;50.938;4.058;2022-08-04T01:54:22;101272.13;;;20.99;74.79
53874;BME280;62246;50.938;4.058;2022-08-04T01:56:48;101269.09;;;20.93;75.32
53874;BME280;62246;50.938;4.058;2022-08-04T01:59:17;101275.66;;;20.91;75.48
53874;BME280;62246;50.938;4.058;2022-08-04T02:01:43;101283.25;;;20.87;75.83
53874;BME280;62246;50.938;4.058;2022-08-04T02:04:17;101275.19;;;20.79;76.27
53874;BME280;62246;50.938;4.058;2022-08-04T02:12:03;101268.16;;;20.61;76.54
53874;BME280;62246;50.938;4.058;2022-08-04T02:14:36;101261.94;;;20.53;76.76
53874;BME280;62246;50.938;4.058;2022-08-04T02:17:14;101258.91;;;20.64;76.88
53874;BME280;62246;50.938;4.058;2022-08-04T02:22:21;101258.41;;;20.52;76.42
53874;BME280;62246;50.938;4.058;2022-08-04T02:24:57;101264.63;;;20.44;76.40
53874;BME280;62246;50.938;4.058;2022-08-04T02:30:12;101258.09;;;20.39;77.13
53874;BME280;62246;50.938;4.058;2022-08-04T02:32:38;101258.94;;;20.39;76.69
53874;BME280;62246;50.938;4.058;2022-08-04T02:35:17;101249.69;;;20.25;77.92
53874;BME280;62246;50.938;4.058;2022-08-04T02:37:51;101253.88;;;20.28;77.45
53874;BME280;62246;50.938;4.058;2022-08-04T02:40:20;101250.34;;;20.03;78.67
53874;BME280;62246;50.938;4.058;2022-08-04T02:42:49;101251.03;;;20.05;78.28
53874;BME280;62246;50.938;4.058;2022-08-04T02:45:17;101250.38;;;20.11;78.06
53874;BME280;62246;50.938;4.058;2022-08-04T02:47:45;101245.66;;;20.13;78.11
53874;BME280;62246;50.938;4.058;2022-08-04T02:50:13;101242.13;;;20.04;78.01
53874;BME280;62246;50.938;4.058;2022-08-04T02:52:40;101231.91;;;19.91;78.36
53874;BME280;62246;50.938;4.058;2022-08-04T02:55:10;101238.44;;;19.97;78.06
53874;BME280;62246;50.938;4.058;2022-08-04T02:57:36;101238.63;;;19.87;78.54
53874;BME280;62246;50.938;4.058;2022-08-04T03:00:11;101241.31;;;19.87;78.70
53874;BME280;62246;50.938;4.058;2022-08-04T03:03:20;101242.28;;;19.78;79.57
53874;BME280;62246;50.938;4.058;2022-08-04T03:22:51;101245.16;;;19.85;77.84
53874;BME280;62246;50.938;4.058;2022-08-04T03:30:18;101246.69;;;19.87;77.57
53874;BME280;62246;50.938;4.058;2022-08-04T03:57:29;101250.59;;;19.50;78.46
53874;BME280;62246;50.938;4.058;2022-08-04T04:00:08;101250.09;;;19.46;78.33
53874;BME280;62246;50.938;4.058;2022-08-04T04:02:44;101248.59;;;19.52;77.68
53874;BME280;62246;50.938;4.058;2022-08-04T04:19:19;101267.09;;;19.63;76.47
53874;BME280;62246;50.938;4.058;2022-08-04T04:21:57;101254.28;;;19.49;76.74
53874;BME280;62246;50.938;4.058;2022-08-04T04:24:58;101254.59;;;19.46;77.16
53874;BME280;62246;50.938;4.058;2022-08-04T04:30:12;101266.72;;;19.50;77.01
53874;BME280;62246;50.938;4.058;2022-08-04T04:33:02;101262.19;;;19.51;76.69
53874;BME280;62246;50.938;4.058;2022-08-04T04:35:49;101262.19;;;19.51;76.88
53874;BME280;62246;50.938;4.058;2022-08-04T04:43:54;101249.41;;;19.53;76.81
53874;BME280;62246;50.938;4.058;2022-08-04T04:46:38;101258.63;;;19.42;77.45
53874;BME280;62246;50.938;4.058;2022-08-04T04:51:51;101249.91;;;19.40;77.48
53874;BME280;62246;50.938;4.058;2022-08-04T04:54:40;101256.25;;;19.39;77.55
53874;BME280;62246;50.938;4.058;2022-08-04T04:57:16;101267.34;;;19.44;77.54
53874;BME280;62246;50.938;4.058;2022-08-04T04:59:52;101270.72;;;19.46;77.89
53874;BME280;62246;50.938;4.058;2022-08-04T05:05:20;101279.97;;;19.52;76.82
53874;BME280;62246;50.938;4.058;2022-08-04T05:08:16;101283.38;;;19.62;77.26
53874;BME280;62246;50.938;4.058;2022-08-04T05:13:56;101291.56;;;19.60;77.56
53874;BME280;62246;50.938;4.058;2022-08-04T05:16:36;101296.47;;;19.65;77.09
53874;BME280;62246;50.938;4.058;2022-08-04T05:21:40;101291.44;;;19.62;77.26
53874;BME280;62246;50.938;4.058;2022-08-04T05:24:08;101292.06;;;19.56;77.09
53874;BME280;62246;50.938;4.058;2022-08-04T05:26:40;101298.81;;;19.68;76.71
53874;BME280;62246;50.938;4.058;2022-08-04T05:29:17;101295.69;;;19.81;77.46
53874;BME280;62246;50.938;4.058;2022-08-04T05:31:50;101293.88;;;19.90;76.51
53874;BME280;62246;50.938;4.058;2022-08-04T05:34:29;101292.84;;;19.91;76.44
53874;BME280;62246;50.938;4.058;2022-08-04T05:37:02;101301.25;;;20.04;75.18
53874;BME280;62246;50.938;4.058;2022-08-04T05:39:36;101302.94;;;19.97;74.98
53874;BME280;62246;50.938;4.058;2022-08-04T05:42:06;101301.09;;;20.14;75.43
53874;BME280;62246;50.938;4.058;2022-08-04T05:44:34;101313.06;;;20.36;75.06
53874;BME280;62246;50.938;4.058;2022-08-04T05:47:01;101317.41;;;20.45;74.28
53874;BME280;62246;50.938;4.058;2022-08-04T05:49:28;101321.25;;;20.59;73.78
53874;BME280;62246;50.938;4.058;2022-08-04T05:51:57;101308.16;;;20.64;74.03
53874;BME280;62246;50.938;4.058;2022-08-04T05:54:24;101315.06;;;20.59;74.71
53874;BME280;62246;50.938;4.058;2022-08-04T05:56:52;101316.06;;;20.58;74.69
53874;BME280;62246;50.938;4.058;2022-08-04T05:59:18;101317.22;;;20.63;73.80
53874;BME280;62246;50.938;4.058;2022-08-04T06:01:45;101321.09;;;20.53;73.92
53874;BME280;62246;50.938;4.058;2022-08-04T06:04:12;101318.94;;;20.48;74.54
53874;BME280;62246;50.938;4.058;2022-08-04T06:06:38;101318.09;;;20.39;74.82
53874;BME280;62246;50.938;4.058;2022-08-04T06:09:04;101324.28;;;20.40;74.86
53874;BME280;62246;50.938;4.058;2022-08-04T06:11:30;101331.19;;;20.26;75.52
53874;BME280;62246;50.938;4.058;2022-08-04T06:13:58;101335.38;;;20.20;76.04
53874;BME280;62246;50.938;4.058;2022-08-04T06:16:37;101334.91;;;20.41;75.88
53874;BME280;62246;50.938;4.058;2022-08-04T06:19:06;101328.00;;;20.47;75.52
53874;BME280;62246;50.938;4.058;2022-08-04T06:21:34;101336.25;;;20.70;74.82
53874;BME280;62246;50.938;4.058;2022-08-04T06:24:03;101327.31;;;20.61;75.14
53874;BME280;62246;50.938;4.058;2022-08-04T06:26:32;101332.03;;;20.59;75.49
53874;BME280;62246;50.938;4.058;2022-08-04T06:28:59;101338.75;;;20.80;74.88
53874;BME280;62246;50.938;4.058;2022-08-04T06:31:26;101336.38;;;20.93;74.58
53874;BME280;62246;50.938;4.058;2022-08-04T06:34:09;101343.28;;;20.96;74.55
53874;BME280;62246;50.938;4.058;2022-08-04T06:36:36;101352.72;;;20.92;74.46
53874;BME280;62246;50.938;4.058;2022-08-04T06:39:04;101348.50;;;20.89;74.95
53874;BME280;62246;50.938;4.058;2022-08-04T06:41:30;101345.22;;;21.19;74.38
53874;BME280;62246;50.938;4.058;2022-08-04T06:44:02;101348.34;;;21.39;74.23
53874;BME280;62246;50.938;4.058;2022-08-04T06:46:29;101349.34;;;21.54;74.35
53874;BME280;62246;50.938;4.058;2022-08-04T06:48:55;101349.22;;;21.79;74.05
53874;BME280;62246;50.938;4.058;2022-08-04T06:51:21;101352.09;;;21.77;74.27
53874;BME280;62246;50.938;4.058;2022-08-04T06:53:47;101356.72;;;21.92;73.81
53874;BME280;62246;50.938;4.058;2022-08-04T06:56:14;101361.84;;;21.78;74.26
53874;BME280;62246;50.938;4.058;2022-08-04T06:58:41;101365.25;;;21.72;74.99
53874;BME280;62246;50.938;4.058;2022-08-04T07:01:07;101366.75;;;21.75;74.70
53874;BME280;62246;50.938;4.058;2022-08-04T07:03:33;101364.63;;;21.62;75.13
53874;BME280;62246;50.938;4.058;2022-08-04T07:06:00;101375.94;;;21.49;75.92
53874;BME280;62246;50.938;4.058;2022-08-04T07:08:26;101378.66;;;21.33;76.63
53874;BME280;62246;50.938;4.058;2022-08-04T07:10:52;101375.47;;;21.37;76.46
53874;BME280;62246;50.938;4.058;2022-08-04T07:13:19;101384.69;;;21.59;75.81
53874;BME280;62246;50.938;4.058;2022-08-04T07:15:47;101376.28;;;21.54;75.66
53874;BME280;62246;50.938;4.058;2022-08-04T07:18:13;101371.66;;;21.71;75.54
53874;BME280;62246;50.938;4.058;2022-08-04T07:20:44;101383.97;;;21.97;74.56
53874;BME280;62246;50.938;4.058;2022-08-04T07:23:10;101391.25;;;22.20;73.98
53874;BME280;62246;50.938;4.058;2022-08-04T07:25:38;101408.53;;;22.34;73.08
53874;BME280;62246;50.938;4.058;2022-08-04T07:28:04;101403.03;;;22.27;73.53
53874;BME280;62246;50.938;4.058;2022-08-04T07:30:30;101402.47;;;22.40;72.79
53874;BME280;62246;50.938;4.058;2022-08-04T07:32:57;101390.19;;;22.29;73.18
53874;BME280;62246;50.938;4.058;2022-08-04T07:35:24;101398.22;;;22.45;72.88
53874;BME280;62246;50.938;4.058;2022-08-04T07:37:51;101403.22;;;22.49;72.95
53874;BME280;62246;50.938;4.058;2022-08-04T07:40:16;101410.50;;;22.48;72.81
53874;BME280;62246;50.938;4.058;2022-08-04T07:42:43;101416.53;;;22.50;73.11
53874;BME280;62246;50.938;4.058;2022-08-04T07:45:09;101418.56;;;21.85;74.49
53874;BME280;62246;50.938;4.058;2022-08-04T07:47:35;101426.44;;;21.63;76.08
53874;BME280;62246;50.938;4.058;2022-08-04T07:50:02;101437.88;;;21.57;76.39
53874;BME280;62246;50.938;4.058;2022-08-04T07:52:28;101426.81;;;21.36;77.31
53874;BME280;62246;50.938;4.058;2022-08-04T07:54:54;101429.88;;;20.91;78.64
53874;BME280;62246;50.938;4.058;2022-08-04T07:57:20;101444.03;;;20.93;79.19
53874;BME280;62246;50.938;4.058;2022-08-04T07:59:46;101455.13;;;21.07;79.00
53874;BME280;62246;50.938;4.058;2022-08-04T08:02:13;101467.25;;;20.94;79.53
53874;BME280;62246;50.938;4.058;2022-08-04T08:04:40;101470.91;;;20.77;79.97
53874;BME280;62246;50.938;4.058;2022-08-04T08:07:06;101474.66;;;20.84;79.57
53874;BME280;62246;50.938;4.058;2022-08-04T08:09:32;101470.53;;;20.63;80.98
53874;BME280;62246;50.938;4.058;2022-08-04T08:11:58;101464.81;;;20.58;81.96
53874;BME280;62246;50.938;4.058;2022-08-04T08:14:25;101463.47;;;20.46;82.33
53874;BME280;62246;50.938;4.058;2022-08-04T08:16:52;101459.72;;;20.30;83.82
53874;BME280;62246;50.938;4.058;2022-08-04T08:19:17;101455.56;;;20.36;84.60
53874;BME280;62246;50.938;4.058;2022-08-04T08:21:47;101453.88;;;20.35;85.61
53874;BME280;62246;50.938;4.058;2022-08-04T08:24:14;101448.31;;;20.28;86.10
53874;BME280;62246;50.938;4.058;2022-08-04T08:26:40;101444.09;;;20.34;86.01
53874;BME280;62246;50.938;4.058;2022-08-04T08:29:06;101437.09;;;20.41;88.01
53874;BME280;62246;50.938;4.058;2022-08-04T08:31:33;101433.22;;;20.60;86.25
53874;BME280;62246;50.938;4.058;2022-08-04T08:33:59;101444.47;;;20.56;85.32
53874;BME280;62246;50.938;4.058;2022-08-04T08:36:33;101429.03;;;20.50;84.16
53874;BME280;62246;50.938;4.058;2022-08-04T08:39:06;101458.06;;;20.38;86.63
53874;BME280;62246;50.938;4.058;2022-08-04T08:47:03;101452.19;;;20.34;88.00
53874;BME280;62246;50.938;4.058;2022-08-04T09:00:19;101428.03;;;20.51;87.54
53874;BME280;62246;50.938;4.058;2022-08-04T09:11:43;101433.22;;;20.60;87.61
53874;BME280;62246;50.938;4.058;2022-08-04T09:14:19;101451.59;;;20.82;87.12
53874;BME280;62246;50.938;4.058;2022-08-04T09:17:01;101458.81;;;20.73;85.77
53874;BME280;62246;50.938;4.058;2022-08-04T09:20:05;101460.50;;;20.74;85.00
53874;BME280;62246;50.938;4.058;2022-08-04T09:22:38;101463.00;;;20.67;86.84
53874;BME280;62246;50.938;4.058;2022-08-04T09:25:21;101467.53;;;20.67;85.23
53874;BME280;62246;50.938;4.058;2022-08-04T09:28:03;101472.97;;;20.75;85.70
53874;BME280;62246;50.938;4.058;2022-08-04T09:30:33;101465.22;;;20.88;85.44
53874;BME280;62246;50.938;4.058;2022-08-04T09:33:47;101474.66;;;21.09;84.89
53874;BME280;62246;50.938;4.058;2022-08-04T09:36:19;101455.44;;;21.20;85.84
53874;BME280;62246;50.938;4.058;2022-08-04T09:38:58;101449.56;;;21.25;87.04
53874;BME280;62246;50.938;4.058;2022-08-04T09:46:52;101447.00;;;21.23;84.71
53874;BME280;62246;50.938;4.058;2022-08-04T09:49:30;101457.78;;;21.32;84.45
53874;BME280;62246;50.938;4.058;2022-08-04T09:52:15;101450.47;;;21.73;85.23
53874;BME280;62246;50.938;4.058;2022-08-04T09:54:50;101444.34;;;21.88;83.62
53874;BME280;62246;50.938;4.058;2022-08-04T10:00:05;101431.56;;;22.13;80.65
53874;BME280;62246;50.938;4.058;2022-08-04T10:02:36;101428.56;;;22.08;81.40
53874;BME280;62246;50.938;4.058;2022-08-04T10:05:07;101430.75;;;22.12;80.29
53874;BME280;62246;50.938;4.058;2022-08-04T10:07:40;101441.59;;;22.59;80.85
53874;BME280;62246;50.938;4.058;2022-08-04T10:10:34;101443.75;;;22.63;76.87
53874;BME280;62246;50.938;4.058;2022-08-04T10:13:17;101446.47;;;23.02;77.05
53874;BME280;62246;50.938;4.058;2022-08-04T10:16:04;101446.03;;;22.98;75.44
53874;BME280;62246;50.938;4.058;2022-08-04T10:24:30;101438.34;;;24.36;71.46
53874;BME280;62246;50.938;4.058;2022-08-04T10:27:07;101429.34;;;23.77;71.74
53874;BME280;62246;50.938;4.058;2022-08-04T10:32:17;101447.22;;;25.45;67.46
53874;BME280;62246;50.938;4.058;2022-08-04T10:35:10;101448.88;;;25.39;66.96
53874;BME280;62246;50.938;4.058;2022-08-04T10:40:22;101451.06;;;25.57;65.16
53874;BME280;62246;50.938;4.058;2022-08-04T10:45:41;101448.66;;;24.63;68.28
53874;BME280;62246;50.938;4.058;2022-08-04T10:48:28;101454.25;;;24.24;69.58
53874;BME280;62246;50.938;4.058;2022-08-04T10:51:05;101457.28;;;23.85;70.34
53874;BME280;62246;50.938;4.058;2022-08-04T10:53:37;101453.66;;;23.77;69.68
53874;BME280;62246;50.938;4.058;2022-08-04T10:56:08;101449.53;;;24.70;68.65
53874;BME280;62246;50.938;4.058;2022-08-04T10:58:44;101456.78;;;25.41;65.93
53874;BME280;62246;50.938;4.058;2022-08-04T11:01:20;101450.22;;;25.00;65.14
53874;BME280;62246;50.938;4.058;2022-08-04T11:03:53;101452.09;;;25.56;64.24
53874;BME280;62246;50.938;4.058;2022-08-04T11:06:22;101457.22;;;26.35;61.70
53874;BME280;62246;50.938;4.058;2022-08-04T11:08:51;101461.13;;;25.70;63.22
53874;BME280;62246;50.938;4.058;2022-08-04T11:11:37;101467.00;;;25.74;63.72
53874;BME280;62246;50.938;4.058;2022-08-04T11:14:10;101449.63;;;26.03;61.92
53874;BME280;62246;50.938;4.058;2022-08-04T11:16:53;101461.97;;;26.13;60.78
53874;BME280;62246;50.938;4.058;2022-08-04T11:21:55;101471.31;;;26.72;58.65
53874;BME280;62246;50.938;4.058;2022-08-04T11:24:45;101465.50;;;26.88;57.29
53874;BME280;62246;50.938;4.058;2022-08-04T11:27:20;101459.56;;;27.52;57.12
53874;BME280;62246;50.938;4.058;2022-08-04T11:29:59;101473.53;;;27.69;56.00
53874;BME280;62246;50.938;4.058;2022-08-04T11:32:52;101470.06;;;27.48;54.81
53874;BME280;62246;50.938;4.058;2022-08-04T11:38:34;101472.38;;;27.18;56.18
53874;BME280;62246;50.938;4.058;2022-08-04T11:41:06;101471.47;;;28.23;54.67
53874;BME280;62246;50.938;4.058;2022-08-04T11:43:43;101476.75;;;27.52;55.27
53874;BME280;62246;50.938;4.058;2022-08-04T11:46:23;101476.72;;;28.18;55.07
53874;BME280;62246;50.938;4.058;2022-08-04T11:49:14;101480.38;;;27.85;55.12
53874;BME280;62246;50.938;4.058;2022-08-04T11:51:41;101487.13;;;27.69;55.89
53874;BME280;62246;50.938;4.058;2022-08-04T11:54:10;101482.25;;;27.91;53.97
53874;BME280;62246;50.938;4.058;2022-08-04T11:56:36;101477.22;;;28.01;53.19
53874;BME280;62246;50.938;4.058;2022-08-04T11:59:06;101479.38;;;28.70;51.41
53874;BME280;62246;50.938;4.058;2022-08-04T12:01:56;101472.31;;;29.13;50.85
53874;BME280;62246;50.938;4.058;2022-08-04T12:07:48;101475.22;;;29.62;50.31
53874;BME280;62246;50.938;4.058;2022-08-04T12:10:49;101472.81;;;29.90;49.32
53874;BME280;62246;50.938;4.058;2022-08-04T12:13:47;101472.84;;;29.84;49.21
53874;BME280;62246;50.938;4.058;2022-08-04T12:16:37;101475.78;;;30.19;48.34
53874;BME280;62246;50.938;4.058;2022-08-04T12:19:16;101471.25;;;30.98;46.02
53874;BME280;62246;50.938;4.058;2022-08-04T12:21:49;101466.00;;;30.42;47.09
53874;BME280;62246;50.938;4.058;2022-08-04T12:24:20;101469.97;;;31.36;45.01
53874;BME280;62246;50.938;4.058;2022-08-04T12:27:03;101479.63;;;32.32;43.56
53874;BME280;62246;50.938;4.058;2022-08-04T12:29:32;101471.59;;;32.42;42.86
53874;BME280;62246;50.938;4.058;2022-08-04T12:32:30;101468.75;;;32.37;41.94
53874;BME280;62246;50.938;4.058;2022-08-04T12:34:59;101458.72;;;33.89;39.38
53874;BME280;62246;50.938;4.058;2022-08-04T12:37:37;101461.66;;;34.97;37.35
53874;BME280;62246;50.938;4.058;2022-08-04T12:40:15;101455.72;;;35.58;37.00
53874;BME280;62246;50.938;4.058;2022-08-04T12:42:47;101465.31;;;38.72;31.42
53874;BME280;62246;50.938;4.058;2022-08-04T12:45:17;101455.56;;;38.80;29.63
53874;BME280;62246;50.938;4.058;2022-08-04T12:47:44;101454.28;;;38.96;29.67
53874;BME280;62246;50.938;4.058;2022-08-04T12:50:13;101452.09;;;37.04;31.81
53874;BME280;62246;50.938;4.058;2022-08-04T12:52:45;101457.59;;;34.67;36.36
53874;BME280;62246;50.938;4.058;2022-08-04T12:55:11;101460.31;;;32.55;40.65
53874;BME280;62246;50.938;4.058;2022-08-04T12:57:39;101451.63;;;32.93;40.92
53874;BME280;62246;50.938;4.058;2022-08-04T13:00:06;101463.84;;;32.22;41.39
53874;BME280;62246;50.938;4.058;2022-08-04T13:02:41;101458.16;;;32.41;41.86
53874;BME280;62246;50.938;4.058;2022-08-04T13:05:12;101449.94;;;32.58;40.83
53874;BME280;62246;50.938;4.058;2022-08-04T13:07:49;101444.47;;;33.92;38.47
53874;BME280;62246;50.938;4.058;2022-08-04T13:10:17;101445.91;;;34.49;37.74
53874;BME280;62246;50.938;4.058;2022-08-04T13:12:58;101447.72;;;35.57;36.04
53874;BME280;62246;50.938;4.058;2022-08-04T13:15:26;101455.34;;;37.21;33.45
53874;BME280;62246;50.938;4.058;2022-08-04T13:18:02;101437.38;;;40.09;27.48
53874;BME280;62246;50.938;4.058;2022-08-04T13:20:32;101443.94;;;42.27;24.56
53874;BME280;62246;50.938;4.058;2022-08-04T13:23:14;101440.00;;;39.62;26.95
53874;BME280;62246;50.938;4.058;2022-08-04T13:25:42;101435.97;;;35.82;33.12
53874;BME280;62246;50.938;4.058;2022-08-04T13:28:14;101432.72;;;33.97;37.26
53874;BME280;62246;50.938;4.058;2022-08-04T13:30:43;101429.81;;;33.20;38.28
53874;BME280;62246;50.938;4.058;2022-08-04T13:33:09;101430.22;;;34.22;36.61
53874;BME280;62246;50.938;4.058;2022-08-04T13:35:42;101425.66;;;32.49;38.84
53874;BME280;62246;50.938;4.058;2022-08-04T13:38:11;101427.25;;;32.62;39.54
53874;BME280;62246;50.938;4.058;2022-08-04T13:40:40;101423.41;;;36.94;34.11
53874;BME280;62246;50.938;4.058;2022-08-04T13:43:06;101431.66;;;36.27;32.93
53874;BME280;62246;50.938;4.058;2022-08-04T13:45:34;101421.22;;;34.54;35.52
53874;BME280;62246;50.938;4.058;2022-08-04T13:48:01;101433.09;;;33.39;37.18
53874;BME280;62246;50.938;4.058;2022-08-04T13:50:28;101425.06;;;35.39;32.39
53874;BME280;62246;50.938;4.058;2022-08-04T13:53:00;101436.09;;;36.75;30.91
53874;BME280;62246;50.938;4.058;2022-08-04T13:55:29;101428.97;;;35.00;33.96
53874;BME280;62246;50.938;4.058;2022-08-04T14:00:43;101428.53;;;37.37;30.01
53874;BME280;62246;50.938;4.058;2022-08-04T14:03:13;101429.75;;;36.38;32.22
53874;BME280;62246;50.938;4.058;2022-08-04T14:05:40;101422.25;;;38.61;28.68
53874;BME280;62246;50.938;4.058;2022-08-04T14:08:14;101417.88;;;37.05;29.23
53874;BME280;62246;50.938;4.058;2022-08-04T14:10:52;101423.09;;;36.24;30.74
53874;BME280;62246;50.938;4.058;2022-08-04T14:13:28;101415.41;;;34.51;34.26
53874;BME280;62246;50.938;4.058;2022-08-04T14:15:55;101417.00;;;37.14;28.96
53874;BME280;62246;50.938;4.058;2022-08-04T14:18:23;101414.41;;;38.97;27.01
53874;BME280;62246;50.938;4.058;2022-08-04T14:28:43;101414.88;;;40.29;25.03
53874;BME280;62246;50.938;4.058;2022-08-04T14:31:13;101410.41;;;39.76;25.87
53874;BME280;62246;50.938;4.058;2022-08-04T14:33:41;101408.34;;;41.14;24.24
53874;BME280;62246;50.938;4.058;2022-08-04T14:36:08;101406.28;;;40.12;25.05
53874;BME280;62246;50.938;4.058;2022-08-04T14:38:57;101394.78;;;39.23;25.42
53874;BME280;62246;50.938;4.058;2022-08-04T14:41:24;101398.59;;;39.03;25.82
53874;BME280;62246;50.938;4.058;2022-08-04T14:43:52;101394.31;;;37.33;28.69
53874;BME280;62246;50.938;4.058;2022-08-04T14:46:19;101386.63;;;38.83;26.30
53874;BME280;62246;50.938;4.058;2022-08-04T14:51:58;101389.53;;;39.22;25.29
53874;BME280;62246;50.938;4.058;2022-08-04T14:54:33;101392.16;;;40.60;24.78
53874;BME280;62246;50.938;4.058;2022-08-04T14:57:05;101390.63;;;38.67;26.44
53874;BME280;62246;50.938;4.058;2022-08-04T14:59:45;101387.22;;;40.57;24.82
53874;BME280;62246;50.938;4.058;2022-08-04T15:02:13;101375.63;;;37.70;27.05
53874;BME280;62246;50.938;4.058;2022-08-04T15:04:40;101382.25;;;38.48;26.65
53874;BME280;62246;50.938;4.058;2022-08-04T15:07:07;101378.91;;;38.51;26.65
53874;BME280;62246;50.938;4.058;2022-08-04T15:09:33;101387.47;;;40.09;25.13
53874;BME280;62246;50.938;4.058;2022-08-04T15:11:59;101387.94;;;39.59;24.97
53874;BME280;62246;50.938;4.058;2022-08-04T15:14:24;101380.06;;;41.26;23.61
53874;BME280;62246;50.938;4.058;2022-08-04T15:16:50;101391.69;;;41.00;23.73
53874;BME280;62246;50.938;4.058;2022-08-04T15:19:16;101387.59;;;37.49;28.74
53874;BME280;62246;50.938;4.058;2022-08-04T15:21:42;101389.75;;;36.30;30.57
53874;BME280;62246;50.938;4.058;2022-08-04T15:24:08;101382.91;;;37.50;29.01
53874;BME280;62246;50.938;4.058;2022-08-04T15:26:40;101383.97;;;37.59;28.48
53874;BME280;62246;50.938;4.058;2022-08-04T15:29:12;101388.59;;;37.69;28.41
53874;BME280;62246;50.938;4.058;2022-08-04T15:31:39;101387.13;;;37.92;27.84
53874;BME280;62246;50.938;4.058;2022-08-04T15:34:07;101390.84;;;38.76;27.21
53874;BME280;62246;50.938;4.058;2022-08-04T15:36:53;101392.34;;;37.44;28.96
53874;BME280;62246;50.938;4.058;2022-08-04T15:45:21;101381.41;;;38.47;27.73
53874;BME280;62246;50.938;4.058;2022-08-04T15:50:28;101381.94;;;37.15;29.39
53874;BME280;62246;50.938;4.058;2022-08-04T15:55:38;101384.09;;;37.28;28.63
53874;BME280;62246;50.938;4.058;2022-08-04T15:58:05;101390.69;;;37.93;28.33
53874;BME280;62246;50.938;4.058;2022-08-04T16:03:39;101387.66;;;34.25;35.26
53874;BME280;62246;50.938;4.058;2022-08-04T16:19:05;101397.47;;;35.87;31.65
53874;BME280;62246;50.938;4.058;2022-08-04T16:21:31;101397.78;;;34.47;33.29
53874;BME280;62246;50.938;4.058;2022-08-04T16:37:37;101393.50;;;31.82;38.31
53874;BME280;62246;50.938;4.058;2022-08-04T16:43:18;101391.63;;;32.96;35.81
53874;BME280;62246;50.938;4.058;2022-08-04T16:45:52;101389.88;;;32.90;36.35
53874;BME280;62246;50.938;4.058;2022-08-04T16:48:27;101390.13;;;31.51;38.33
53874;BME280;62246;50.938;4.058;2022-08-04T16:51:06;101387.81;;;30.83;40.13
53874;BME280;62246;50.938;4.058;2022-08-04T16:53:39;101397.31;;;30.27;41.79
53874;BME280;62246;50.938;4.058;2022-08-04T16:56:06;101400.94;;;29.41;42.43
53874;BME280;62246;50.938;4.058;2022-08-04T16:58:34;101404.91;;;29.01;43.44
53874;BME280;62246;50.938;4.058;2022-08-04T17:01:11;101397.91;;;29.68;41.20
53874;BME280;62246;50.938;4.058;2022-08-04T17:03:38;101398.72;;;30.60;39.82
53874;BME280;62246;50.938;4.058;2022-08-04T17:06:12;101398.69;;;29.56;42.12
53874;BME280;62246;50.938;4.058;2022-08-04T17:08:40;101404.91;;;28.76;44.07